Terminal Aerodrome Forecast
Issued by NWS

Current Version | Previous Version | Text Only | Print | Product List | Glossary Off
Versions: 1 2 3 4 5 6 7 8 9 10 11 12 13 14

000
FTUS41 KPBZ 031736
TAFMGW
TAF
KMGW 031736Z 0318/0418 22008KT P6SM SKC
     FM032100 25005KT P6SM OVC250
      TEMPO 0322/0323 P6SM TS BKN050CB
     FM040600 21003KT 6SM BR BKN100
     FM041100 23002KT P6SM BKN050
     FM041200 26004KT P6SM SCT250=

USA.gov is the U.S. government's official web portal to all federal, state and local government web resources and services.